Roxbury, Massachusetts
Current Conditions -  °F | °C
As of 4:54 AM on Monday 22 Dec 2014 (Local Time) from KBOS Reporting Station
Overcast Overcast  
Wind Chill: 28°   Ceiling: 5500
Heat Index: 33°   Visibility: 10mi
Dew Point: 27°   Wind: 6mph
Humidity: 78%   Direction: 350°N
Pressure: 30.36"   Gusts: NA
Location:  42.3237°N, 71.0855°W
Report Text: KBOS 220954Z 35005KT 10SM FEW025 OVC055 01/M03 A3036 RMK AO2 SLP280 T00061028
Loading
Personal Weather Stations






























Interactive Weather Map New forecast layout! Learn more

10-Day Weather Forecast

Advertisements
Track Severe Weather on mobile